sensor_id;sensor_type;location;lat;lon;timestamp;P1;durP1;ratioP1;P2;durP2;ratioP2
5507;SDS011;2776;51.046;6.772;2023-04-03T00:00:19;6.90;;;4.40;;
5507;SDS011;2776;51.046;6.772;2023-04-03T00:02:46;4.03;;;3.60;;
5507;SDS011;2776;51.046;6.772;2023-04-03T00:05:13;4.47;;;4.00;;
5507;SDS011;2776;51.046;6.772;2023-04-03T00:07:41;4.17;;;3.77;;
5507;SDS011;2776;51.046;6.772;2023-04-03T00:10:08;3.90;;;3.60;;
5507;SDS011;2776;51.046;6.772;2023-04-03T00:12:35;4.33;;;3.90;;
5507;SDS011;2776;51.046;6.772;2023-04-03T00:15:02;5.60;;;4.10;;
5507;SDS011;2776;51.046;6.772;2023-04-03T00:17:29;4.60;;;4.20;;
5507;SDS011;2776;51.046;6.772;2023-04-03T00:19:56;4.57;;;4.17;;
5507;SDS011;2776;51.046;6.772;2023-04-03T00:22:23;4.80;;;4.20;;
5507;SDS011;2776;51.046;6.772;2023-04-03T00:24:52;5.73;;;4.47;;
5507;SDS011;2776;51.046;6.772;2023-04-03T00:27:19;4.70;;;4.23;;
5507;SDS011;2776;51.046;6.772;2023-04-03T00:29:46;4.90;;;4.10;;
5507;SDS011;2776;51.046;6.772;2023-04-03T00:32:13;4.77;;;4.23;;
5507;SDS011;2776;51.046;6.772;2023-04-03T00:34:40;4.37;;;3.97;;
5507;SDS011;2776;51.046;6.772;2023-04-03T00:37:06;4.50;;;4.07;;
5507;SDS011;2776;51.046;6.772;2023-04-03T00:39:33;4.20;;;3.80;;
5507;SDS011;2776;51.046;6.772;2023-04-03T00:42:01;4.00;;;3.70;;
5507;SDS011;2776;51.046;6.772;2023-04-03T00:47:29;5.43;;;3.83;;
5507;SDS011;2776;51.046;6.772;2023-04-03T00:49:57;4.70;;;4.30;;
5507;SDS011;2776;51.046;6.772;2023-04-03T00:52:25;4.83;;;4.13;;
5507;SDS011;2776;51.046;6.772;2023-04-03T00:54:55;5.07;;;4.67;;
5507;SDS011;2776;51.046;6.772;2023-04-03T00:57:28;5.33;;;4.87;;
5507;SDS011;2776;51.046;6.772;2023-04-03T00:59:57;5.53;;;5.10;;
5507;SDS011;2776;51.046;6.772;2023-04-03T01:02:28;5.97;;;5.13;;
5507;SDS011;2776;51.046;6.772;2023-04-03T01:04:54;5.93;;;4.87;;
5507;SDS011;2776;51.046;6.772;2023-04-03T01:07:22;5.87;;;5.23;;
5507;SDS011;2776;51.046;6.772;2023-04-03T01:09:52;5.57;;;4.63;;
5507;SDS011;2776;51.046;6.772;2023-04-03T01:12:23;5.70;;;5.07;;
5507;SDS011;2776;51.046;6.772;2023-04-03T01:14:53;5.80;;;5.30;;
5507;SDS011;2776;51.046;6.772;2023-04-03T01:17:24;6.27;;;5.67;;
5507;SDS011;2776;51.046;6.772;2023-04-03T01:19:57;5.70;;;5.20;;
5507;SDS011;2776;51.046;6.772;2023-04-03T01:22:49;5.13;;;4.73;;
5507;SDS011;2776;51.046;6.772;2023-04-03T01:25:22;6.07;;;5.43;;
5507;SDS011;2776;51.046;6.772;2023-04-03T01:27:49;5.40;;;4.90;;
5507;SDS011;2776;51.046;6.772;2023-04-03T01:30:18;6.17;;;5.40;;
5507;SDS011;2776;51.046;6.772;2023-04-03T01:32:47;5.77;;;5.27;;
5507;SDS011;2776;51.046;6.772;2023-04-03T01:35:14;6.17;;;5.60;;
5507;SDS011;2776;51.046;6.772;2023-04-03T01:37:41;6.90;;;5.63;;
5507;SDS011;2776;51.046;6.772;2023-04-03T01:40:08;7.13;;;6.03;;
5507;SDS011;2776;51.046;6.772;2023-04-03T01:42:35;6.53;;;5.90;;
5507;SDS011;2776;51.046;6.772;2023-04-03T01:45:02;7.23;;;6.53;;
5507;SDS011;2776;51.046;6.772;2023-04-03T01:47:30;6.47;;;5.80;;
5507;SDS011;2776;51.046;6.772;2023-04-03T01:49:58;7.30;;;6.50;;
5507;SDS011;2776;51.046;6.772;2023-04-03T01:52:25;9.63;;;6.83;;
5507;SDS011;2776;51.046;6.772;2023-04-03T01:54:51;7.17;;;6.33;;
5507;SDS011;2776;51.046;6.772;2023-04-03T01:57:18;9.60;;;6.27;;
5507;SDS011;2776;51.046;6.772;2023-04-03T01:59:45;7.33;;;6.40;;
5507;SDS011;2776;51.046;6.772;2023-04-03T02:02:11;9.60;;;7.20;;
5507;SDS011;2776;51.046;6.772;2023-04-03T02:04:39;9.03;;;7.40;;
5507;SDS011;2776;51.046;6.772;2023-04-03T02:07:07;7.83;;;7.03;;
5507;SDS011;2776;51.046;6.772;2023-04-03T02:09:35;8.63;;;7.20;;
5507;SDS011;2776;51.046;6.772;2023-04-03T02:12:01;8.17;;;7.17;;
5507;SDS011;2776;51.046;6.772;2023-04-03T02:14:28;8.17;;;7.10;;
5507;SDS011;2776;51.046;6.772;2023-04-03T02:16:55;8.40;;;7.60;;
5507;SDS011;2776;51.046;6.772;2023-04-03T02:19:22;9.27;;;7.57;;
5507;SDS011;2776;51.046;6.772;2023-04-03T02:21:49;7.53;;;6.53;;
5507;SDS011;2776;51.046;6.772;2023-04-03T02:24:17;8.83;;;7.63;;
5507;SDS011;2776;51.046;6.772;2023-04-03T02:26:44;8.27;;;7.47;;
5507;SDS011;2776;51.046;6.772;2023-04-03T02:29:11;10.40;;;7.70;;
5507;SDS011;2776;51.046;6.772;2023-04-03T02:31:37;8.73;;;6.90;;
5507;SDS011;2776;51.046;6.772;2023-04-03T02:34:04;8.93;;;7.17;;
5507;SDS011;2776;51.046;6.772;2023-04-03T02:36:31;10.87;;;7.43;;
5507;SDS011;2776;51.046;6.772;2023-04-03T02:38:58;8.40;;;7.47;;
5507;SDS011;2776;51.046;6.772;2023-04-03T02:41:26;10.77;;;8.53;;
5507;SDS011;2776;51.046;6.772;2023-04-03T02:43:59;8.27;;;7.40;;
5507;SDS011;2776;51.046;6.772;2023-04-03T02:46:26;11.07;;;8.33;;
5507;SDS011;2776;51.046;6.772;2023-04-03T02:48:53;10.57;;;7.33;;
5507;SDS011;2776;51.046;6.772;2023-04-03T02:51:20;10.30;;;7.70;;
5507;SDS011;2776;51.046;6.772;2023-04-03T02:53:47;8.23;;;7.43;;
5507;SDS011;2776;51.046;6.772;2023-04-03T02:56:15;8.83;;;7.93;;
5507;SDS011;2776;51.046;6.772;2023-04-03T02:58:44;9.33;;;7.37;;
5507;SDS011;2776;51.046;6.772;2023-04-03T03:01:11;10.10;;;7.80;;
5507;SDS011;2776;51.046;6.772;2023-04-03T03:03:38;10.67;;;7.97;;
5507;SDS011;2776;51.046;6.772;2023-04-03T03:06:06;11.70;;;7.97;;
5507;SDS011;2776;51.046;6.772;2023-04-03T03:08:34;9.73;;;6.80;;
5507;SDS011;2776;51.046;6.772;2023-04-03T03:11:01;8.20;;;7.40;;
5507;SDS011;2776;51.046;6.772;2023-04-03T03:13:28;10.17;;;8.40;;
5507;SDS011;2776;51.046;6.772;2023-04-03T03:15:57;8.13;;;7.13;;
5507;SDS011;2776;51.046;6.772;2023-04-03T03:18:24;9.83;;;7.23;;
5507;SDS011;2776;51.046;6.772;2023-04-03T03:20:51;7.30;;;6.60;;
5507;SDS011;2776;51.046;6.772;2023-04-03T03:23:18;9.80;;;7.30;;
5507;SDS011;2776;51.046;6.772;2023-04-03T03:25:45;7.73;;;6.93;;
5507;SDS011;2776;51.046;6.772;2023-04-03T03:28:11;17.70;;;11.37;;
5507;SDS011;2776;51.046;6.772;2023-04-03T03:30:38;9.23;;;7.70;;
5507;SDS011;2776;51.046;6.772;2023-04-03T03:33:06;8.37;;;7.37;;
5507;SDS011;2776;51.046;6.772;2023-04-03T03:35:33;8.57;;;6.83;;
5507;SDS011;2776;51.046;6.772;2023-04-03T03:38:00;7.23;;;6.53;;
5507;SDS011;2776;51.046;6.772;2023-04-03T03:40:27;9.90;;;7.47;;
5507;SDS011;2776;51.046;6.772;2023-04-03T03:42:53;8.13;;;6.60;;
5507;SDS011;2776;51.046;6.772;2023-04-03T03:45:20;7.23;;;6.13;;
5507;SDS011;2776;51.046;6.772;2023-04-03T03:47:47;8.93;;;6.53;;
5507;SDS011;2776;51.046;6.772;2023-04-03T03:50:15;7.47;;;5.57;;
5507;SDS011;2776;51.046;6.772;2023-04-03T03:52:42;7.27;;;5.60;;
5507;SDS011;2776;51.046;6.772;2023-04-03T03:55:09;7.60;;;6.53;;
5507;SDS011;2776;51.046;6.772;2023-04-03T03:57:36;8.53;;;5.93;;
5507;SDS011;2776;51.046;6.772;2023-04-03T04:00:03;9.30;;;6.77;;
5507;SDS011;2776;51.046;6.772;2023-04-03T04:02:32;7.67;;;6.87;;
5507;SDS011;2776;51.046;6.772;2023-04-03T04:04:59;6.43;;;5.47;;
5507;SDS011;2776;51.046;6.772;2023-04-03T04:07:27;8.37;;;5.87;;
5507;SDS011;2776;51.046;6.772;2023-04-03T04:09:54;8.40;;;5.73;;
5507;SDS011;2776;51.046;6.772;2023-04-03T04:12:21;5.60;;;4.80;;
5507;SDS011;2776;51.046;6.772;2023-04-03T04:14:48;5.80;;;5.20;;
5507;SDS011;2776;51.046;6.772;2023-04-03T04:17:14;7.27;;;5.93;;
5507;SDS011;2776;51.046;6.772;2023-04-03T04:19:41;8.70;;;5.13;;
5507;SDS011;2776;51.046;6.772;2023-04-03T04:22:08;8.67;;;5.17;;
5507;SDS011;2776;51.046;6.772;2023-04-03T04:24:36;6.63;;;4.10;;
5507;SDS011;2776;51.046;6.772;2023-04-03T04:27:03;5.47;;;4.27;;
5507;SDS011;2776;51.046;6.772;2023-04-03T04:29:30;6.07;;;4.50;;
5507;SDS011;2776;51.046;6.772;2023-04-03T04:32:00;5.40;;;4.90;;
5507;SDS011;2776;51.046;6.772;2023-04-03T04:34:27;5.57;;;4.97;;
5507;SDS011;2776;51.046;6.772;2023-04-03T04:36:54;6.73;;;5.20;;
5507;SDS011;2776;51.046;6.772;2023-04-03T04:39:20;7.33;;;5.20;;
5507;SDS011;2776;51.046;6.772;2023-04-03T04:41:48;7.57;;;5.43;;
5507;SDS011;2776;51.046;6.772;2023-04-03T04:44:15;5.53;;;4.70;;
5507;SDS011;2776;51.046;6.772;2023-04-03T04:46:42;7.77;;;5.00;;
5507;SDS011;2776;51.046;6.772;2023-04-03T04:49:09;5.90;;;5.30;;
5507;SDS011;2776;51.046;6.772;2023-04-03T04:51:36;8.00;;;5.30;;
5507;SDS011;2776;51.046;6.772;2023-04-03T04:54:02;7.67;;;5.40;;
5507;SDS011;2776;51.046;6.772;2023-04-03T04:56:29;6.27;;;5.13;;
5507;SDS011;2776;51.046;6.772;2023-04-03T04:58:58;6.87;;;5.50;;
5507;SDS011;2776;51.046;6.772;2023-04-03T05:01:25;7.77;;;5.47;;
5507;SDS011;2776;51.046;6.772;2023-04-03T05:03:52;6.97;;;5.40;;
5507;SDS011;2776;51.046;6.772;2023-04-03T05:06:18;6.63;;;5.40;;
5507;SDS011;2776;51.046;6.772;2023-04-03T05:08:45;5.63;;;4.70;;
5507;SDS011;2776;51.046;6.772;2023-04-03T05:11:12;7.37;;;5.53;;
5507;SDS011;2776;51.046;6.772;2023-04-03T05:13:38;7.30;;;4.93;;
5507;SDS011;2776;51.046;6.772;2023-04-03T05:16:07;6.23;;;5.07;;
5507;SDS011;2776;51.046;6.772;2023-04-03T05:18:34;6.40;;;5.50;;
5507;SDS011;2776;51.046;6.772;2023-04-03T05:21:01;5.77;;;5.17;;
5507;SDS011;2776;51.046;6.772;2023-04-03T05:23:27;8.50;;;5.40;;
5507;SDS011;2776;51.046;6.772;2023-04-03T05:25:54;8.67;;;4.83;;
5507;SDS011;2776;51.046;6.772;2023-04-03T05:28:21;7.90;;;5.37;;
5507;SDS011;2776;51.046;6.772;2023-04-03T05:30:52;5.27;;;4.77;;
5507;SDS011;2776;51.046;6.772;2023-04-03T05:33:21;9.83;;;5.33;;
5507;SDS011;2776;51.046;6.772;2023-04-03T05:35:49;6.43;;;4.90;;
5507;SDS011;2776;51.046;6.772;2023-04-03T05:38:15;7.53;;;4.80;;
5507;SDS011;2776;51.046;6.772;2023-04-03T05:40:42;6.97;;;4.90;;
5507;SDS011;2776;51.046;6.772;2023-04-03T05:43:09;5.03;;;4.03;;
5507;SDS011;2776;51.046;6.772;2023-04-03T05:45:36;6.23;;;4.07;;
5507;SDS011;2776;51.046;6.772;2023-04-03T05:48:03;6.90;;;4.13;;
5507;SDS011;2776;51.046;6.772;2023-04-03T05:50:31;3.97;;;3.23;;
5507;SDS011;2776;51.046;6.772;2023-04-03T05:52:58;6.37;;;2.93;;
5507;SDS011;2776;51.046;6.772;2023-04-03T05:55:26;4.03;;;2.63;;
5507;SDS011;2776;51.046;6.772;2023-04-03T05:57:52;4.60;;;2.67;;
5507;SDS011;2776;51.046;6.772;2023-04-03T06:00:19;2.97;;;2.43;;
5507;SDS011;2776;51.046;6.772;2023-04-03T06:02:46;4.63;;;2.50;;
5507;SDS011;2776;51.046;6.772;2023-04-03T06:05:13;4.20;;;2.27;;
5507;SDS011;2776;51.046;6.772;2023-04-03T06:07:41;5.47;;;2.13;;
5507;SDS011;2776;51.046;6.772;2023-04-03T06:10:10;3.20;;;1.90;;
5507;SDS011;2776;51.046;6.772;2023-04-03T06:12:37;5.00;;;2.10;;
5507;SDS011;2776;51.046;6.772;2023-04-03T06:15:05;3.87;;;2.40;;
5507;SDS011;2776;51.046;6.772;2023-04-03T06:17:33;2.73;;;2.17;;
5507;SDS011;2776;51.046;6.772;2023-04-03T06:20:00;2.50;;;2.07;;
5507;SDS011;2776;51.046;6.772;2023-04-03T06:22:26;3.57;;;1.97;;
5507;SDS011;2776;51.046;6.772;2023-04-03T06:24:56;6.07;;;2.30;;
5507;SDS011;2776;51.046;6.772;2023-04-03T06:27:22;2.67;;;1.93;;
5507;SDS011;2776;51.046;6.772;2023-04-03T06:29:49;3.20;;;2.30;;
5507;SDS011;2776;51.046;6.772;2023-04-03T06:32:16;2.47;;;2.17;;
5507;SDS011;2776;51.046;6.772;2023-04-03T06:34:43;2.63;;;2.20;;
5507;SDS011;2776;51.046;6.772;2023-04-03T06:37:10;4.47;;;2.30;;
5507;SDS011;2776;51.046;6.772;2023-04-03T06:39:41;2.23;;;1.70;;
5507;SDS011;2776;51.046;6.772;2023-04-03T06:42:09;6.10;;;2.37;;
5507;SDS011;2776;51.046;6.772;2023-04-03T06:44:36;3.63;;;2.50;;
5507;SDS011;2776;51.046;6.772;2023-04-03T06:47:03;3.20;;;1.80;;
5507;SDS011;2776;51.046;6.772;2023-04-03T06:49:30;2.35;;;1.75;;
5507;SDS011;2776;51.046;6.772;2023-04-03T06:51:57;4.60;;;2.00;;
5507;SDS011;2776;51.046;6.772;2023-04-03T06:54:24;3.08;;;1.70;;
5507;SDS011;2776;51.046;6.772;2023-04-03T06:56:51;5.03;;;2.38;;
5507;SDS011;2776;51.046;6.772;2023-04-03T06:59:19;5.27;;;2.03;;
5507;SDS011;2776;51.046;6.772;2023-04-03T07:01:45;3.40;;;2.03;;
5507;SDS011;2776;51.046;6.772;2023-04-03T07:04:12;3.83;;;2.00;;
5507;SDS011;2776;51.046;6.772;2023-04-03T07:06:39;5.20;;;2.53;;
5507;SDS011;2776;51.046;6.772;2023-04-03T07:09:06;4.53;;;2.37;;
5507;SDS011;2776;51.046;6.772;2023-04-03T07:11:34;3.30;;;1.97;;
5507;SDS011;2776;51.046;6.772;2023-04-03T07:14:01;2.83;;;1.87;;
5507;SDS011;2776;51.046;6.772;2023-04-03T07:16:29;1.83;;;1.30;;
5507;SDS011;2776;51.046;6.772;2023-04-03T07:18:56;4.17;;;1.60;;
5507;SDS011;2776;51.046;6.772;2023-04-03T07:21:23;3.40;;;2.10;;
5507;SDS011;2776;51.046;6.772;2023-04-03T07:23:50;3.17;;;1.30;;
5507;SDS011;2776;51.046;6.772;2023-04-03T07:26:17;4.17;;;2.43;;
5507;SDS011;2776;51.046;6.772;2023-04-03T07:28:45;5.17;;;2.83;;
5507;SDS011;2776;51.046;6.772;2023-04-03T07:31:13;4.43;;;2.33;;
5507;SDS011;2776;51.046;6.772;2023-04-03T07:33:43;3.97;;;2.13;;
5507;SDS011;2776;51.046;6.772;2023-04-03T07:36:11;4.13;;;1.60;;
5507;SDS011;2776;51.046;6.772;2023-04-03T07:38:42;1.63;;;1.17;;
5507;SDS011;2776;51.046;6.772;2023-04-03T07:41:10;3.07;;;1.60;;
5507;SDS011;2776;51.046;6.772;2023-04-03T07:43:38;2.17;;;1.50;;
5507;SDS011;2776;51.046;6.772;2023-04-03T07:46:05;2.83;;;1.40;;
5507;SDS011;2776;51.046;6.772;2023-04-03T07:48:32;2.77;;;2.00;;
5507;SDS011;2776;51.046;6.772;2023-04-03T07:51:01;4.47;;;2.23;;
5507;SDS011;2776;51.046;6.772;2023-04-03T07:53:29;3.77;;;1.90;;
5507;SDS011;2776;51.046;6.772;2023-04-03T07:55:56;4.27;;;2.20;;
5507;SDS011;2776;51.046;6.772;2023-04-03T07:58:23;2.27;;;1.43;;
5507;SDS011;2776;51.046;6.772;2023-04-03T08:00:50;1.80;;;1.30;;
5507;SDS011;2776;51.046;6.772;2023-04-03T08:03:18;3.70;;;1.47;;
5507;SDS011;2776;51.046;6.772;2023-04-03T08:05:46;3.50;;;1.70;;
5507;SDS011;2776;51.046;6.772;2023-04-03T08:08:16;2.30;;;1.40;;
5507;SDS011;2776;51.046;6.772;2023-04-03T08:10:47;3.63;;;1.57;;
5507;SDS011;2776;51.046;6.772;2023-04-03T08:13:14;3.37;;;1.33;;
5507;SDS011;2776;51.046;6.772;2023-04-03T08:15:41;3.43;;;2.27;;
5507;SDS011;2776;51.046;6.772;2023-04-03T08:18:08;3.03;;;1.20;;
5507;SDS011;2776;51.046;6.772;2023-04-03T08:20:35;2.87;;;1.37;;
5507;SDS011;2776;51.046;6.772;2023-04-03T08:23:03;4.43;;;1.80;;
5507;SDS011;2776;51.046;6.772;2023-04-03T08:25:31;2.93;;;1.60;;
5507;SDS011;2776;51.046;6.772;2023-04-03T08:27:58;2.67;;;1.87;;
5507;SDS011;2776;51.046;6.772;2023-04-03T08:30:25;2.43;;;1.60;;
5507;SDS011;2776;51.046;6.772;2023-04-03T08:32:52;2.40;;;1.07;;
5507;SDS011;2776;51.046;6.772;2023-04-03T08:35:19;2.87;;;1.50;;
5507;SDS011;2776;51.046;6.772;2023-04-03T08:37:45;2.50;;;1.50;;
5507;SDS011;2776;51.046;6.772;2023-04-03T08:40:13;3.83;;;1.20;;
5507;SDS011;2776;51.046;6.772;2023-04-03T08:42:45;1.30;;;1.10;;
5507;SDS011;2776;51.046;6.772;2023-04-03T08:45:21;2.17;;;1.10;;
5507;SDS011;2776;51.046;6.772;2023-04-03T08:47:55;2.10;;;1.00;;
5507;SDS011;2776;51.046;6.772;2023-04-03T08:50:28;3.17;;;1.07;;
5507;SDS011;2776;51.046;6.772;2023-04-03T08:53:00;2.13;;;1.10;;
5507;SDS011;2776;51.046;6.772;2023-04-03T08:55:31;2.47;;;1.10;;
5507;SDS011;2776;51.046;6.772;2023-04-03T08:58:02;2.70;;;1.00;;
5507;SDS011;2776;51.046;6.772;2023-04-03T09:00:32;1.57;;;1.07;;
5507;SDS011;2776;51.046;6.772;2023-04-03T09:03:10;1.67;;;0.90;;
5507;SDS011;2776;51.046;6.772;2023-04-03T09:05:39;2.37;;;0.90;;
5507;SDS011;2776;51.046;6.772;2023-04-03T09:08:12;1.87;;;0.80;;
5507;SDS011;2776;51.046;6.772;2023-04-03T09:10:47;1.93;;;0.87;;
5507;SDS011;2776;51.046;6.772;2023-04-03T09:13:19;1.30;;;0.73;;
5507;SDS011;2776;51.046;6.772;2023-04-03T09:15:52;1.70;;;0.67;;
5507;SDS011;2776;51.046;6.772;2023-04-03T09:18:20;2.20;;;1.00;;
5507;SDS011;2776;51.046;6.772;2023-04-03T09:20:53;1.17;;;0.80;;
5507;SDS011;2776;51.046;6.772;2023-04-03T09:23:26;2.00;;;0.90;;
5507;SDS011;2776;51.046;6.772;2023-04-03T09:25:58;3.47;;;0.90;;
5507;SDS011;2776;51.046;6.772;2023-04-03T09:28:31;1.37;;;0.80;;
5507;SDS011;2776;51.046;6.772;2023-04-03T09:31:01;1.63;;;0.80;;
5507;SDS011;2776;51.046;6.772;2023-04-03T09:33:37;1.10;;;0.90;;
5507;SDS011;2776;51.046;6.772;2023-04-03T09:36:06;2.30;;;0.90;;
5507;SDS011;2776;51.046;6.772;2023-04-03T09:38:32;1.90;;;0.80;;
5507;SDS011;2776;51.046;6.772;2023-04-03T09:41:04;1.87;;;1.00;;
5507;SDS011;2776;51.046;6.772;2023-04-03T09:43:34;1.83;;;1.10;;
5507;SDS011;2776;51.046;6.772;2023-04-03T09:46:18;3.07;;;1.70;;
5507;SDS011;2776;51.046;6.772;2023-04-03T09:48:51;1.33;;;1.20;;
5507;SDS011;2776;51.046;6.772;2023-04-03T09:51:23;2.00;;;0.80;;
5507;SDS011;2776;51.046;6.772;2023-04-03T09:53:52;2.47;;;1.03;;
5507;SDS011;2776;51.046;6.772;2023-04-03T09:56:21;2.97;;;1.00;;
5507;SDS011;2776;51.046;6.772;2023-04-03T09:58:52;2.33;;;1.07;;
5507;SDS011;2776;51.046;6.772;2023-04-03T10:01:39;2.17;;;0.90;;
5507;SDS011;2776;51.046;6.772;2023-04-03T10:04:10;2.53;;;1.47;;
5507;SDS011;2776;51.046;6.772;2023-04-03T10:06:39;1.93;;;0.70;;
5507;SDS011;2776;51.046;6.772;2023-04-03T10:09:15;1.33;;;0.83;;
5507;SDS011;2776;51.046;6.772;2023-04-03T10:14:33;3.33;;;1.30;;
5507;SDS011;2776;51.046;6.772;2023-04-03T10:17:14;0.93;;;0.87;;
5507;SDS011;2776;51.046;6.772;2023-04-03T10:19:45;1.57;;;0.90;;
5507;SDS011;2776;51.046;6.772;2023-04-03T10:22:19;3.33;;;0.90;;
5507;SDS011;2776;51.046;6.772;2023-04-03T10:24:55;1.60;;;1.00;;
5507;SDS011;2776;51.046;6.772;2023-04-03T10:27:35;2.57;;;1.43;;
5507;SDS011;2776;51.046;6.772;2023-04-03T10:30:13;2.03;;;0.80;;
5507;SDS011;2776;51.046;6.772;2023-04-03T10:32:54;1.60;;;0.87;;
5507;SDS011;2776;51.046;6.772;2023-04-03T10:35:35;2.67;;;1.60;;
5507;SDS011;2776;51.046;6.772;2023-04-03T10:38:09;2.17;;;0.97;;
5507;SDS011;2776;51.046;6.772;2023-04-03T10:40:44;3.53;;;1.70;;
5507;SDS011;2776;51.046;6.772;2023-04-03T10:43:19;1.90;;;1.23;;
5507;SDS011;2776;51.046;6.772;2023-04-03T10:45:55;1.17;;;1.00;;
5507;SDS011;2776;51.046;6.772;2023-04-03T10:48:33;2.00;;;1.10;;
5507;SDS011;2776;51.046;6.772;2023-04-03T10:51:16;1.63;;;1.17;;
5507;SDS011;2776;51.046;6.772;2023-04-03T10:53:52;2.57;;;0.90;;
5507;SDS011;2776;51.046;6.772;2023-04-03T10:56:30;1.63;;;0.95;;
5507;SDS011;2776;51.046;6.772;2023-04-03T10:59:02;2.93;;;0.87;;
5507;SDS011;2776;51.046;6.772;2023-04-03T11:01:40;3.50;;;1.37;;
5507;SDS011;2776;51.046;6.772;2023-04-03T11:04:10;2.37;;;0.90;;
5507;SDS011;2776;51.046;6.772;2023-04-03T11:06:39;3.67;;;0.90;;
5507;SDS011;2776;51.046;6.772;2023-04-03T11:09:15;1.87;;;0.90;;
5507;SDS011;2776;51.046;6.772;2023-04-03T11:11:48;1.90;;;1.00;;
5507;SDS011;2776;51.046;6.772;2023-04-03T11:14:18;2.57;;;1.30;;
5507;SDS011;2776;51.046;6.772;2023-04-03T11:16:53;1.47;;;1.00;;
5507;SDS011;2776;51.046;6.772;2023-04-03T11:19:29;2.07;;;0.87;;
5507;SDS011;2776;51.046;6.772;2023-04-03T11:22:02;0.90;;;0.70;;
5507;SDS011;2776;51.046;6.772;2023-04-03T11:24:34;1.47;;;0.97;;
5507;SDS011;2776;51.046;6.772;2023-04-03T11:27:05;2.03;;;1.10;;
5507;SDS011;2776;51.046;6.772;2023-04-03T11:29:37;1.33;;;0.97;;
5507;SDS011;2776;51.046;6.772;2023-04-03T11:32:14;2.83;;;1.40;;
5507;SDS011;2776;51.046;6.772;2023-04-03T11:34:53;1.10;;;0.50;;
5507;SDS011;2776;51.046;6.772;2023-04-03T11:37:25;1.30;;;0.60;;
5507;SDS011;2776;51.046;6.772;2023-04-03T11:39:58;1.33;;;0.70;;
5507;SDS011;2776;51.046;6.772;2023-04-03T11:42:30;1.10;;;0.90;;
5507;SDS011;2776;51.046;6.772;2023-04-03T11:47:53;2.37;;;1.10;;
5507;SDS011;2776;51.046;6.772;2023-04-03T11:50:31;1.80;;;0.87;;
5507;SDS011;2776;51.046;6.772;2023-04-03T11:53:26;1.43;;;1.00;;
5507;SDS011;2776;51.046;6.772;2023-04-03T11:56:02;2.13;;;1.13;;
5507;SDS011;2776;51.046;6.772;2023-04-03T11:58:31;1.87;;;1.00;;
5507;SDS011;2776;51.046;6.772;2023-04-03T12:01:03;0.83;;;0.60;;
5507;SDS011;2776;51.046;6.772;2023-04-03T12:12:36;0.77;;;0.70;;
5507;SDS011;2776;51.046;6.772;2023-04-03T12:15:25;1.27;;;0.60;;
5507;SDS011;2776;51.046;6.772;2023-04-03T12:21:16;0.80;;;0.70;;
5507;SDS011;2776;51.046;6.772;2023-04-03T12:24:04;2.77;;;1.50;;
5507;SDS011;2776;51.046;6.772;2023-04-03T12:26:50;0.67;;;0.63;;
5507;SDS011;2776;51.046;6.772;2023-04-03T12:29:29;1.60;;;0.60;;
5507;SDS011;2776;51.046;6.772;2023-04-03T12:32:08;3.17;;;0.60;;
5507;SDS011;2776;51.046;6.772;2023-04-03T12:34:45;0.73;;;0.70;;
5507;SDS011;2776;51.046;6.772;2023-04-03T12:37:38;1.93;;;0.70;;
5507;SDS011;2776;51.046;6.772;2023-04-03T12:40:16;1.93;;;0.70;;
5507;SDS011;2776;51.046;6.772;2023-04-03T12:43:02;0.73;;;0.60;;
5507;SDS011;2776;51.046;6.772;2023-04-03T12:45:50;1.17;;;0.83;;
5507;SDS011;2776;51.046;6.772;2023-04-03T12:48:24;1.07;;;0.60;;
5507;SDS011;2776;51.046;6.772;2023-04-03T12:50:52;2.80;;;0.70;;
5507;SDS011;2776;51.046;6.772;2023-04-03T12:53:22;0.90;;;0.53;;
5507;SDS011;2776;51.046;6.772;2023-04-03T12:55:54;0.80;;;0.60;;
5507;SDS011;2776;51.046;6.772;2023-04-03T12:58:22;1.00;;;0.57;;
5507;SDS011;2776;51.046;6.772;2023-04-03T13:01:00;1.73;;;0.70;;
5507;SDS011;2776;51.046;6.772;2023-04-03T13:03:29;1.90;;;0.77;;
5507;SDS011;2776;51.046;6.772;2023-04-03T13:05:57;0.50;;;0.50;;
5507;SDS011;2776;51.046;6.772;2023-04-03T13:08:26;0.50;;;0.40;;
5507;SDS011;2776;51.046;6.772;2023-04-03T13:10:56;1.30;;;0.60;;
5507;SDS011;2776;51.046;6.772;2023-04-03T13:13:26;0.80;;;0.60;;
5507;SDS011;2776;51.046;6.772;2023-04-03T13:15:53;1.43;;;0.80;;
5507;SDS011;2776;51.046;6.772;2023-04-03T13:18:21;0.60;;;0.60;;
5507;SDS011;2776;51.046;6.772;2023-04-03T13:20:50;1.80;;;0.80;;
5507;SDS011;2776;51.046;6.772;2023-04-03T13:23:18;1.43;;;0.83;;
5507;SDS011;2776;51.046;6.772;2023-04-03T13:25:47;3.63;;;2.30;;
5507;SDS011;2776;51.046;6.772;2023-04-03T13:28:18;2.03;;;1.50;;
5507;SDS011;2776;51.046;6.772;2023-04-03T13:30:55;1.10;;;0.80;;
5507;SDS011;2776;51.046;6.772;2023-04-03T13:33:25;1.27;;;0.63;;
5507;SDS011;2776;51.046;6.772;2023-04-03T13:35:57;1.37;;;1.00;;
5507;SDS011;2776;51.046;6.772;2023-04-03T13:38:27;1.97;;;0.83;;
5507;SDS011;2776;51.046;6.772;2023-04-03T13:40:57;2.00;;;1.10;;
5507;SDS011;2776;51.046;6.772;2023-04-03T13:43:29;1.00;;;0.73;;
5507;SDS011;2776;51.046;6.772;2023-04-03T13:45:59;2.30;;;0.90;;
5507;SDS011;2776;51.046;6.772;2023-04-03T13:48:34;3.23;;;1.00;;
5507;SDS011;2776;51.046;6.772;2023-04-03T13:51:06;2.40;;;0.77;;
5507;SDS011;2776;51.046;6.772;2023-04-03T13:53:44;0.67;;;0.67;;
5507;SDS011;2776;51.046;6.772;2023-04-03T13:56:18;3.97;;;1.47;;
5507;SDS011;2776;51.046;6.772;2023-04-03T13:58:58;2.10;;;0.73;;
5507;SDS011;2776;51.046;6.772;2023-04-03T14:01:33;3.47;;;1.07;;
5507;SDS011;2776;51.046;6.772;2023-04-03T14:04:10;1.30;;;1.00;;
5507;SDS011;2776;51.046;6.772;2023-04-03T14:06:40;1.17;;;0.90;;
5507;SDS011;2776;51.046;6.772;2023-04-03T14:09:07;1.77;;;0.90;;
5507;SDS011;2776;51.046;6.772;2023-04-03T14:11:34;2.00;;;0.90;;
5507;SDS011;2776;51.046;6.772;2023-04-03T14:14:06;2.97;;;0.80;;
5507;SDS011;2776;51.046;6.772;2023-04-03T14:16:39;1.13;;;0.80;;
5507;SDS011;2776;51.046;6.772;2023-04-03T14:19:09;4.20;;;1.90;;
5507;SDS011;2776;51.046;6.772;2023-04-03T14:21:44;2.83;;;1.27;;
5507;SDS011;2776;51.046;6.772;2023-04-03T14:24:10;1.67;;;0.87;;
5507;SDS011;2776;51.046;6.772;2023-04-03T14:26:37;2.07;;;0.80;;
5507;SDS011;2776;51.046;6.772;2023-04-03T14:29:05;1.37;;;0.70;;
5507;SDS011;2776;51.046;6.772;2023-04-03T14:31:32;1.37;;;0.90;;
5507;SDS011;2776;51.046;6.772;2023-04-03T14:33:59;2.97;;;1.10;;
5507;SDS011;2776;51.046;6.772;2023-04-03T14:36:27;3.37;;;2.30;;
5507;SDS011;2776;51.046;6.772;2023-04-03T14:38:55;5.03;;;1.30;;
5507;SDS011;2776;51.046;6.772;2023-04-03T14:41:23;3.40;;;1.20;;
5507;SDS011;2776;51.046;6.772;2023-04-03T14:43:51;2.37;;;0.80;;
5507;SDS011;2776;51.046;6.772;2023-04-03T14:46:21;1.57;;;0.90;;
5507;SDS011;2776;51.046;6.772;2023-04-03T14:48:51;1.87;;;1.13;;
5507;SDS011;2776;51.046;6.772;2023-04-03T14:51:18;3.37;;;1.00;;
5507;SDS011;2776;51.046;6.772;2023-04-03T14:53:45;1.03;;;0.77;;
5507;SDS011;2776;51.046;6.772;2023-04-03T14:56:12;1.10;;;1.00;;
5507;SDS011;2776;51.046;6.772;2023-04-03T14:58:40;1.13;;;1.00;;
5507;SDS011;2776;51.046;6.772;2023-04-03T15:01:08;1.97;;;1.10;;
5507;SDS011;2776;51.046;6.772;2023-04-03T15:03:37;1.40;;;1.13;;
5507;SDS011;2776;51.046;6.772;2023-04-03T15:06:04;1.57;;;1.07;;
5507;SDS011;2776;51.046;6.772;2023-04-03T15:08:31;2.27;;;1.00;;
5507;SDS011;2776;51.046;6.772;2023-04-03T15:10:58;1.50;;;1.00;;
5507;SDS011;2776;51.046;6.772;2023-04-03T15:13:26;1.77;;;1.00;;
5507;SDS011;2776;51.046;6.772;2023-04-03T15:15:52;3.63;;;0.77;;
5507;SDS011;2776;51.046;6.772;2023-04-03T15:18:21;1.90;;;1.27;;
5507;SDS011;2776;51.046;6.772;2023-04-03T15:20:52;1.97;;;1.03;;
5507;SDS011;2776;51.046;6.772;2023-04-03T15:23:19;1.20;;;0.80;;
5507;SDS011;2776;51.046;6.772;2023-04-03T15:25:50;2.07;;;0.87;;
5507;SDS011;2776;51.046;6.772;2023-04-03T15:28:19;2.53;;;1.30;;
5507;SDS011;2776;51.046;6.772;2023-04-03T15:30:49;1.87;;;0.93;;
5507;SDS011;2776;51.046;6.772;2023-04-03T15:33:17;1.60;;;1.07;;
5507;SDS011;2776;51.046;6.772;2023-04-03T15:35:44;1.63;;;1.00;;
5507;SDS011;2776;51.046;6.772;2023-04-03T15:38:12;1.43;;;1.00;;
5507;SDS011;2776;51.046;6.772;2023-04-03T15:40:39;2.43;;;1.30;;
5507;SDS011;2776;51.046;6.772;2023-04-03T15:43:07;2.30;;;1.20;;
5507;SDS011;2776;51.046;6.772;2023-04-03T15:45:34;1.83;;;1.00;;
5507;SDS011;2776;51.046;6.772;2023-04-03T15:48:02;2.37;;;1.20;;
5507;SDS011;2776;51.046;6.772;2023-04-03T15:50:30;3.60;;;1.20;;